Terminal Aerodrome Forecast
Issued by NWS

Home | Current Version | Previous Version | Text Only | Print | Product List | Glossary On
Versions: 1 2 3 4 5 6 7 8 9 10 11 12 13 14 15 16 17
292
FTUS46 KSTO 091134
TAFRDD
TAF
KRDD 091134Z 0912/1012 VRB04KT 3SM BR VCSH BKN009 OVC015
      TEMPO 0912/0915 2SM BR BKN004 OVC010
     FM091500 00000KT 2SM BR OVC007
      TEMPO 0915/0918 1 1/2SM BR BKN003
     FM092300 18007KT 2SM -RA BR OVC015=

USA.gov is the U.S. government's official web portal to all federal, state and local government web resources and services.